createdAt,value
2016-11-19T00:00:03.302Z,7
2016-11-19T00:00:13.296Z,6.9
2016-11-19T00:00:23.291Z,6.9
2016-11-19T00:00:33.283Z,6.9
2016-11-19T00:00:43.278Z,6.9
2016-11-19T00:00:53.271Z,6.8
2016-11-19T00:01:03.265Z,6.9
2016-11-19T00:01:13.260Z,7
2016-11-19T00:01:23.253Z,7
2016-11-19T00:01:33.247Z,7
2016-11-19T00:01:43.241Z,7
2016-11-19T00:01:53.235Z,7
2016-11-19T00:02:03.228Z,6.9
2016-11-19T00:02:13.223Z,6.8
2016-11-19T00:02:23.216Z,6.8
2016-11-19T00:02:33.210Z,7
2016-11-19T00:02:43.204Z,6.9
2016-11-19T00:02:53.198Z,6.9
2016-11-19T00:03:03.193Z,6.9
2016-11-19T00:03:13.184Z,6.9
2016-11-19T00:03:23.179Z,6.9
2016-11-19T00:03:33.172Z,6.8
2016-11-19T00:03:43.167Z,6.9
2016-11-19T00:03:53.162Z,6.8
2016-11-19T00:04:03.162Z,6.8
2016-11-19T00:04:13.149Z,6.8
2016-11-19T00:04:23.143Z,6.8
2016-11-19T00:04:33.136Z,6.9
2016-11-19T00:04:43.129Z,6.8
2016-11-19T00:04:53.124Z,6.8
2016-11-19T00:05:03.118Z,6.8
2016-11-19T00:05:13.112Z,6.8
2016-11-19T00:05:23.105Z,6.8
2016-11-19T00:05:33.100Z,6.8
2016-11-19T00:05:43.095Z,6.8
2016-11-19T00:05:53.087Z,6.7
2016-11-19T00:06:03.081Z,6.8
2016-11-19T00:06:13.075Z,6.7
2016-11-19T00:06:23.069Z,6.7
2016-11-19T00:06:33.063Z,6.7
2016-11-19T00:06:43.057Z,6.7
2016-11-19T00:06:53.051Z,6.7
2016-11-19T00:07:03.044Z,6.7
2016-11-19T00:07:13.036Z,6.8
2016-11-19T00:07:23.033Z,6.7
2016-11-19T00:07:33.026Z,6.8
2016-11-19T00:07:43.020Z,6.8
2016-11-19T00:07:53.015Z,6.8
2016-11-19T00:08:03.007Z,6.8
2016-11-19T00:08:13.002Z,6.8
2016-11-19T00:08:22.995Z,6.8
2016-11-19T00:08:32.990Z,6.8
2016-11-19T00:08:42.982Z,6.8
2016-11-19T00:08:52.977Z,6.8
2016-11-19T00:09:02.971Z,6.8
2016-11-19T00:09:12.964Z,6.8
2016-11-19T00:09:22.958Z,6.7
2016-11-19T00:09:32.952Z,6.7
2016-11-19T00:09:42.946Z,6.7
2016-11-19T00:09:52.939Z,6.7
2016-11-19T00:10:02.934Z,6.7
2016-11-19T00:10:12.928Z,6.7
2016-11-19T00:10:22.921Z,6.7
2016-11-19T00:10:32.915Z,6.6
2016-11-19T00:10:42.909Z,6.7
2016-11-19T00:10:52.902Z,6.7
2016-11-19T00:11:02.897Z,6.6
2016-11-19T00:11:12.890Z,6.6
2016-11-19T00:11:22.884Z,6.6
2016-11-19T00:11:32.880Z,6.7
2016-11-19T00:11:42.872Z,6.7
2016-11-19T00:11:52.867Z,6.7
2016-11-19T00:12:02.860Z,6.7
2016-11-19T00:12:12.855Z,6.7
2016-11-19T00:12:22.846Z,6.7
2016-11-19T00:12:32.839Z,6.7
2016-11-19T00:12:42.835Z,6.7
2016-11-19T00:12:52.829Z,6.7
2016-11-19T00:13:02.823Z,6.7
2016-11-19T00:13:12.817Z,6.7
2016-11-19T00:13:22.808Z,6.7
2016-11-19T00:13:32.804Z,6.7
2016-11-19T00:13:42.798Z,6.7
2016-11-19T00:13:52.792Z,6.7
2016-11-19T00:14:02.786Z,6.7
2016-11-19T00:14:12.780Z,6.7
2016-11-19T00:14:22.774Z,6.7
2016-11-19T00:14:32.767Z,6.7
2016-11-19T00:14:42.761Z,6.7
2016-11-19T00:14:52.754Z,6.7
2016-11-19T00:15:02.749Z,6.7
2016-11-19T00:15:12.742Z,6.7
2016-11-19T00:15:22.737Z,6.7
2016-11-19T00:15:32.731Z,6.7
2016-11-19T00:15:42.725Z,6.6
2016-11-19T00:15:52.718Z,6.7
2016-11-19T00:16:02.712Z,6.7
2016-11-19T00:16:12.706Z,6.7
2016-11-19T00:16:22.699Z,6.7
2016-11-19T00:16:32.694Z,6.7
2016-11-19T00:16:42.688Z,6.7
2016-11-19T00:16:52.683Z,6.7
2016-11-19T00:17:02.675Z,6.8
2016-11-19T00:17:12.669Z,6.8
2016-11-19T00:17:22.661Z,6.8
2016-11-19T00:17:32.657Z,6.8
2016-11-19T00:17:42.651Z,6.8
2016-11-19T00:17:52.646Z,6.8
2016-11-19T00:18:02.638Z,6.8
2016-11-19T00:18:12.633Z,6.9
2016-11-19T00:18:22.627Z,6.8
2016-11-19T00:18:32.620Z,6.9
2016-11-19T00:18:42.613Z,6.8
2016-11-19T00:18:52.607Z,6.8
2016-11-19T00:19:02.602Z,6.8
2016-11-19T00:19:12.595Z,6.8
2016-11-19T00:19:22.590Z,6.7
2016-11-19T00:19:32.583Z,6.8
2016-11-19T00:19:42.576Z,6.8
2016-11-19T00:19:52.571Z,6.8
2016-11-19T00:20:02.565Z,6.8
2016-11-19T00:20:12.558Z,6.8
2016-11-19T00:20:22.552Z,6.8
2016-11-19T00:20:32.545Z,6.8
2016-11-19T00:20:42.541Z,6.8
2016-11-19T00:20:52.534Z,6.9
2016-11-19T00:21:02.527Z,6.8
2016-11-19T00:21:12.521Z,6.8
2016-11-19T00:21:22.515Z,6.9
2016-11-19T00:21:32.509Z,6.8
2016-11-19T00:21:42.503Z,6.8
2016-11-19T00:21:52.497Z,6.8
2016-11-19T00:22:02.491Z,6.9
2016-11-19T00:22:12.485Z,6.8
2016-11-19T00:22:22.477Z,6.8
2016-11-19T00:22:32.471Z,6.8
2016-11-19T00:22:42.465Z,6.8
2016-11-19T00:22:52.459Z,6.8
2016-11-19T00:23:02.454Z,6.8
2016-11-19T00:23:12.447Z,6.9
2016-11-19T00:23:22.442Z,6.8
2016-11-19T00:23:32.437Z,6.8
2016-11-19T00:23:42.429Z,6.8
2016-11-19T00:23:52.424Z,6.8
2016-11-19T00:24:02.415Z,6.8
2016-11-19T00:24:12.410Z,6.8
2016-11-19T00:24:22.405Z,6.8
2016-11-19T00:24:32.400Z,6.7
2016-11-19T00:24:42.392Z,6.8
2016-11-19T00:24:52.387Z,6.8
2016-11-19T00:25:02.379Z,6.8
2016-11-19T00:25:12.375Z,6.8
2016-11-19T00:25:22.367Z,6.8
2016-11-19T00:25:32.361Z,6.8
2016-11-19T00:25:42.354Z,6.8
2016-11-19T00:25:52.349Z,6.8
2016-11-19T00:26:02.343Z,6.8
2016-11-19T00:26:12.338Z,6.8
2016-11-19T00:26:22.331Z,6.7
2016-11-19T00:26:32.325Z,6.8
2016-11-19T00:26:42.316Z,6.8
2016-11-19T00:26:52.312Z,6.8
2016-11-19T00:27:02.306Z,6.8
2016-11-19T00:27:12.299Z,6.8
2016-11-19T00:27:22.294Z,6.8
2016-11-19T00:27:32.288Z,6.7
2016-11-19T00:27:42.282Z,6.8
2016-11-19T00:27:52.276Z,6.7
2016-11-19T00:28:02.270Z,6.8
2016-11-19T00:28:12.265Z,6.7
2016-11-19T00:28:22.257Z,6.8
2016-11-19T00:28:32.250Z,6.8
2016-11-19T00:28:42.244Z,6.9
2016-11-19T00:28:52.247Z,6.8
2016-11-19T00:29:02.233Z,6.9
2016-11-19T00:29:12.228Z,6.9
2016-11-19T00:29:22.218Z,6.8
2016-11-19T00:29:32.214Z,6.8
2016-11-19T00:29:43.058Z,6.8
2016-11-19T00:29:52.201Z,6.8
2016-11-19T00:30:02.195Z,6.8
2016-11-19T00:30:12.190Z,6.7
2016-11-19T00:30:22.182Z,6.6
2016-11-19T00:30:32.176Z,6.7
2016-11-19T00:30:42.170Z,6.7
2016-11-19T00:30:52.166Z,6.6
2016-11-19T00:31:02.159Z,6.7
2016-11-19T00:31:12.151Z,6.8
2016-11-19T00:31:22.146Z,6.7
2016-11-19T00:31:32.140Z,6.8
2016-11-19T00:31:42.133Z,6.8
2016-11-19T00:31:52.128Z,6.8
2016-11-19T00:32:02.121Z,6.9
2016-11-19T00:32:12.116Z,6.9
2016-11-19T00:32:22.109Z,6.8
2016-11-19T00:32:32.104Z,6.9
2016-11-19T00:32:42.097Z,6.9
2016-11-19T00:32:52.091Z,6.8
2016-11-19T00:33:02.084Z,6.8
2016-11-19T00:33:12.078Z,6.8
2016-11-19T00:33:22.072Z,6.8
2016-11-19T00:33:32.066Z,6.7
2016-11-19T00:33:42.061Z,6.7
2016-11-19T00:33:52.053Z,6.8
2016-11-19T00:34:02.048Z,6.7
2016-11-19T00:34:12.041Z,6.7
2016-11-19T00:34:22.035Z,6.7
2016-11-19T00:34:32.029Z,6.7
2016-11-19T00:34:42.023Z,6.6
2016-11-19T00:34:52.016Z,6.7
2016-11-19T00:35:02.015Z,6.7
2016-11-19T00:35:12.004Z,6.7
2016-11-19T00:35:21.999Z,6.7
2016-11-19T00:35:31.992Z,6.7
2016-11-19T00:35:41.986Z,6.7
2016-11-19T00:35:51.979Z,6.7
2016-11-19T00:36:01.973Z,6.7
2016-11-19T00:36:11.967Z,6.7
2016-11-19T00:36:21.961Z,6.7
2016-11-19T00:36:31.955Z,6.7
2016-11-19T00:36:41.949Z,6.6
2016-11-19T00:36:51.943Z,6.7
2016-11-19T00:37:01.937Z,6.7
2016-11-19T00:37:11.930Z,6.7
2016-11-19T00:37:21.924Z,6.6
2016-11-19T00:37:31.918Z,6.6
2016-11-19T00:37:41.914Z,6.7
2016-11-19T00:37:51.904Z,6.7
2016-11-19T00:38:01.900Z,6.6
2016-11-19T00:38:11.893Z,6.6
2016-11-19T00:38:21.887Z,6.6
2016-11-19T00:38:31.881Z,6.7
2016-11-19T00:38:41.874Z,6.7
2016-11-19T00:38:51.868Z,6.6
2016-11-19T00:39:01.863Z,6.6
2016-11-19T00:39:11.857Z,6.7
2016-11-19T00:39:21.849Z,6.7
2016-11-19T00:39:31.844Z,6.6
2016-11-19T00:39:41.837Z,6.6
2016-11-19T00:39:51.832Z,6.7
2016-11-19T00:40:01.826Z,6.7
2016-11-19T00:40:11.819Z,6.7
2016-11-19T00:40:21.814Z,6.7
2016-11-19T00:40:31.807Z,6.7
2016-11-19T00:40:41.801Z,6.7
2016-11-19T00:40:51.795Z,6.7
2016-11-19T00:41:01.788Z,6.6
2016-11-19T00:41:11.791Z,6.6
2016-11-19T00:41:21.775Z,6.7
2016-11-19T00:41:31.771Z,6.7
2016-11-19T00:41:41.764Z,6.7
2016-11-19T00:41:51.757Z,6.6
2016-11-19T00:42:01.752Z,6.7
2016-11-19T00:42:11.745Z,6.6
2016-11-19T00:42:21.739Z,6.7
2016-11-19T00:42:31.732Z,6.7
2016-11-19T00:42:41.728Z,6.6
2016-11-19T00:42:51.722Z,6.7
2016-11-19T00:43:01.715Z,6.6
2016-11-19T00:43:11.707Z,6.6
2016-11-19T00:43:21.702Z,6.6
2016-11-19T00:43:31.695Z,6.6
2016-11-19T00:43:41.689Z,6.6
2016-11-19T00:43:51.685Z,6.6
2016-11-19T00:44:01.678Z,6.6
2016-11-19T00:44:11.672Z,6.6
2016-11-19T00:44:21.666Z,6.6
2016-11-19T00:44:31.659Z,6.6
2016-11-19T00:44:41.651Z,6.6
2016-11-19T00:44:51.647Z,6.6
2016-11-19T00:45:01.640Z,6.6
2016-11-19T00:45:11.636Z,6.5
2016-11-19T00:45:21.629Z,6.6
2016-11-19T00:45:31.623Z,6.5
2016-11-19T00:45:41.636Z,6.6
2016-11-19T00:45:51.609Z,6.6
2016-11-19T00:46:01.602Z,6.6
2016-11-19T00:46:11.598Z,6.6
2016-11-19T00:46:21.591Z,6.6
2016-11-19T00:46:31.585Z,6.6
2016-11-19T00:46:41.577Z,6.6
2016-11-19T00:46:51.571Z,6.6
2016-11-19T00:47:01.567Z,6.6
2016-11-19T00:47:11.559Z,6.6
2016-11-19T00:47:21.553Z,6.6
2016-11-19T00:47:31.549Z,6.6
2016-11-19T00:47:41.543Z,6.6
2016-11-19T00:47:51.536Z,6.6
2016-11-19T00:48:01.530Z,6.7
2016-11-19T00:48:11.523Z,6.6
2016-11-19T00:48:21.517Z,6.5
2016-11-19T00:48:31.509Z,6.5
2016-11-19T00:48:41.505Z,6.5
2016-11-19T00:48:51.499Z,6.5
2016-11-19T00:49:01.492Z,6.6
2016-11-19T00:49:11.486Z,6.6
2016-11-19T00:49:21.480Z,6.6
2016-11-19T00:49:31.474Z,6.6
2016-11-19T00:49:41.468Z,6.6
2016-11-19T00:49:51.461Z,6.5
2016-11-19T00:50:01.455Z,6.5
2016-11-19T00:50:11.451Z,6.6
2016-11-19T00:50:21.443Z,6.6
2016-11-19T00:50:31.438Z,6.5
2016-11-19T00:50:41.430Z,6.6
2016-11-19T00:50:51.424Z,6.5
2016-11-19T00:51:01.417Z,6.4
2016-11-19T00:51:11.411Z,6.4
2016-11-19T00:51:21.405Z,6.5
2016-11-19T00:51:31.400Z,6.5
2016-11-19T00:51:41.395Z,6.4
2016-11-19T00:51:51.387Z,6.4
2016-11-19T00:52:01.380Z,6.4
2016-11-19T00:52:11.375Z,6.5
2016-11-19T00:52:21.367Z,6.5
2016-11-19T00:52:31.362Z,6.5
2016-11-19T00:52:41.356Z,6.5
2016-11-19T00:52:51.351Z,6.4
2016-11-19T00:53:01.343Z,6.4
2016-11-19T00:53:11.338Z,6.4
2016-11-19T00:53:21.330Z,6.4
2016-11-19T00:53:31.323Z,6.4
2016-11-19T00:53:41.320Z,6.4
2016-11-19T00:53:51.312Z,6.4
2016-11-19T00:54:01.307Z,6.5
2016-11-19T00:54:11.301Z,6.5
2016-11-19T00:54:21.293Z,6.5
2016-11-19T00:54:31.289Z,6.5
2016-11-19T00:54:41.282Z,6.5
2016-11-19T00:54:51.276Z,6.4
2016-11-19T00:55:01.270Z,6.4
2016-11-19T00:55:11.263Z,6.5
2016-11-19T00:55:21.256Z,6.4
2016-11-19T00:55:31.253Z,6.4
2016-11-19T00:55:41.245Z,6.5
2016-11-19T00:55:51.239Z,6.4
2016-11-19T00:56:01.232Z,6.4
2016-11-19T00:56:11.226Z,6.5
2016-11-19T00:56:21.219Z,6.4
2016-11-19T00:56:31.214Z,6.4
2016-11-19T00:56:41.209Z,6.4
2016-11-19T00:56:51.202Z,6.4
2016-11-19T00:57:01.197Z,6.4
2016-11-19T00:57:11.190Z,6.4
2016-11-19T00:57:21.181Z,6.4
2016-11-19T00:57:31.177Z,6.4
2016-11-19T00:57:41.171Z,6.4
2016-11-19T00:57:51.164Z,6.5
2016-11-19T00:58:01.159Z,6.5
2016-11-19T00:58:11.152Z,6.4
2016-11-19T00:58:21.146Z,6.4
2016-11-19T00:58:31.141Z,6.4
2016-11-19T00:58:41.134Z,6.4
2016-11-19T00:58:51.127Z,6.4
2016-11-19T00:59:01.122Z,6.4
2016-11-19T00:59:11.116Z,6.3
2016-11-19T00:59:21.111Z,6.4
2016-11-19T00:59:31.104Z,6.4
2016-11-19T00:59:41.097Z,6.4
2016-11-19T00:59:51.090Z,6.5
2016-11-19T01:00:01.085Z,6.4
2016-11-19T01:00:11.078Z,6.3
2016-11-19T01:00:21.072Z,6.4
2016-11-19T01:00:31.066Z,6.4
2016-11-19T01:00:41.060Z,6.4
2016-11-19T01:00:51.053Z,6.4
2016-11-19T01:01:01.047Z,6.4
2016-11-19T01:01:11.041Z,6.5
2016-11-19T01:01:21.035Z,6.4
2016-11-19T01:01:31.029Z,6.5
2016-11-19T01:01:41.023Z,6.4
2016-11-19T01:01:51.016Z,6.5
2016-11-19T01:02:01.011Z,6.5
2016-11-19T01:02:11.005Z,6.4
2016-11-19T01:02:20.998Z,6.4
2016-11-19T01:02:30.992Z,6.5
2016-11-19T01:02:40.986Z,6.4
2016-11-19T01:02:50.978Z,6.4
2016-11-19T01:03:00.973Z,6.4
2016-11-19T01:03:10.967Z,6.4
2016-11-19T01:03:20.961Z,6.4
2016-11-19T01:03:30.955Z,6.4
2016-11-19T01:03:40.947Z,6.4
2016-11-19T01:03:50.942Z,6.4
2016-11-19T01:04:00.935Z,6.4
2016-11-19T01:04:10.930Z,6.5
2016-11-19T01:04:20.924Z,6.4
2016-11-19T01:04:30.917Z,6.4
2016-11-19T01:04:40.912Z,6.4
2016-11-19T01:04:50.905Z,6.4
2016-11-19T01:05:00.898Z,6.5
2016-11-19T01:05:10.892Z,6.5
2016-11-19T01:05:20.886Z,6.3
2016-11-19T01:05:30.880Z,6.3
2016-11-19T01:05:40.876Z,6.3
2016-11-19T01:05:50.868Z,6.5
2016-11-19T01:06:00.862Z,6.5
2016-11-19T01:06:10.856Z,6.4
2016-11-19T01:06:20.848Z,6.4
2016-11-19T01:06:30.844Z,6.4
2016-11-19T01:06:40.837Z,6.4
2016-11-19T01:06:50.831Z,6.3
2016-11-19T01:07:00.825Z,6.4
2016-11-19T01:07:10.818Z,6.4
2016-11-19T01:07:20.813Z,6.5
2016-11-19T01:07:30.806Z,6.3
2016-11-19T01:07:40.800Z,6.4
2016-11-19T01:07:50.794Z,6.4
2016-11-19T01:08:00.787Z,6.4
2016-11-19T01:08:10.783Z,6.4
2016-11-19T01:08:20.776Z,6.4
2016-11-19T01:08:30.769Z,6.4
2016-11-19T01:08:40.763Z,6.4
2016-11-19T01:08:50.756Z,6.4
2016-11-19T01:09:00.750Z,6.4
2016-11-19T01:09:10.745Z,6.4
2016-11-19T01:09:20.739Z,6.3
2016-11-19T01:09:30.732Z,6.5
2016-11-19T01:09:40.727Z,6.3
2016-11-19T01:09:50.719Z,6.4
2016-11-19T01:10:00.712Z,6.4
2016-11-19T01:10:10.707Z,6.4
2016-11-19T01:10:20.701Z,6.4
2016-11-19T01:10:30.694Z,6.4
2016-11-19T01:10:40.690Z,6.4
2016-11-19T01:10:50.683Z,6.3
2016-11-19T01:11:00.678Z,6.4
2016-11-19T01:11:10.670Z,6.4
2016-11-19T01:11:20.663Z,6.4
2016-11-19T01:11:30.658Z,6.3
2016-11-19T01:11:40.651Z,6.4
2016-11-19T01:11:50.645Z,6.4
2016-11-19T01:12:00.640Z,6.3
2016-11-19T01:12:10.633Z,6.4
2016-11-19T01:12:20.628Z,6.3
2016-11-19T01:12:30.619Z,6.3
2016-11-19T01:12:40.614Z,6.4
2016-11-19T01:12:50.610Z,6.4
2016-11-19T01:13:00.602Z,6.4
2016-11-19T01:13:10.596Z,6.4
2016-11-19T01:13:20.589Z,6.4
2016-11-19T01:13:30.584Z,6.5
2016-11-19T01:13:40.578Z,6.3
2016-11-19T01:13:50.569Z,6.4
2016-11-19T01:14:00.565Z,6.3
2016-11-19T01:14:10.558Z,6.3
2016-11-19T01:14:20.552Z,6.4
2016-11-19T01:14:30.547Z,6.3
2016-11-19T01:14:40.540Z,6.4
2016-11-19T01:14:50.533Z,6.4
2016-11-19T01:15:00.529Z,6.4
2016-11-19T01:15:10.521Z,6.4
2016-11-19T01:15:20.516Z,6.4
2016-11-19T01:15:30.508Z,6.3
2016-11-19T01:15:40.502Z,6.3
2016-11-19T01:15:50.496Z,6.4
2016-11-19T01:16:00.490Z,6.3
2016-11-19T01:16:10.485Z,6.4
2016-11-19T01:16:20.478Z,6.3
2016-11-19T01:16:30.469Z,6.3
2016-11-19T01:16:40.466Z,6.3
2016-11-19T01:16:50.460Z,6.3
2016-11-19T01:17:00.453Z,6.2
2016-11-19T01:17:10.447Z,6.3
2016-11-19T01:17:20.440Z,6.2
2016-11-19T01:17:30.434Z,6.3
2016-11-19T01:17:40.427Z,6.3
2016-11-19T01:17:50.421Z,6.3
2016-11-19T01:18:00.414Z,6.4
2016-11-19T01:18:10.408Z,6.3
2016-11-19T01:18:20.403Z,6.4
2016-11-19T01:18:30.397Z,6.4
2016-11-19T01:18:40.390Z,6.3
2016-11-19T01:18:50.382Z,6.3
2016-11-19T01:19:00.378Z,6.4
2016-11-19T01:19:10.371Z,6.4
2016-11-19T01:19:20.366Z,6.3
2016-11-19T01:19:30.359Z,6.3
2016-11-19T01:19:40.354Z,6.4
2016-11-19T01:19:50.350Z,6.3
2016-11-19T01:20:00.340Z,6.4
2016-11-19T01:20:10.334Z,6.4
2016-11-19T01:20:20.330Z,6.4
2016-11-19T01:20:30.321Z,6.3
2016-11-19T01:20:40.317Z,6.4
2016-11-19T01:20:50.323Z,6.3
2016-11-19T01:21:00.303Z,6.4
2016-11-19T01:21:10.298Z,6.3
2016-11-19T01:21:20.289Z,6.5
2016-11-19T01:21:30.283Z,6.5
2016-11-19T01:21:40.278Z,6.4
2016-11-19T01:21:50.272Z,6.4
2016-11-19T01:22:00.266Z,6.4
2016-11-19T01:22:10.260Z,6.4
2016-11-19T01:22:20.253Z,6.4
2016-11-19T01:22:30.248Z,6.4
2016-11-19T01:22:40.239Z,6.4
2016-11-19T01:22:50.235Z,6.4
2016-11-19T01:23:00.229Z,6.4
2016-11-19T01:23:10.223Z,6.5
2016-11-19T01:23:20.218Z,6.4
2016-11-19T01:23:30.211Z,6.4
2016-11-19T01:23:40.204Z,6.4
2016-11-19T01:23:50.198Z,6.3
2016-11-19T01:24:00.192Z,6.4
2016-11-19T01:24:10.184Z,6.4
2016-11-19T01:24:20.179Z,6.4
2016-11-19T01:24:30.173Z,6.4
2016-11-19T01:24:40.167Z,6.4
2016-11-19T01:24:50.161Z,6.3
2016-11-19T01:25:00.154Z,6.4
2016-11-19T01:25:10.150Z,6.4
2016-11-19T01:25:20.141Z,6.4
2016-11-19T01:25:30.137Z,6.4
2016-11-19T01:25:40.131Z,6.4
2016-11-19T01:25:50.123Z,6.4
2016-11-19T01:26:00.117Z,6.3
2016-11-19T01:26:10.113Z,6.4
2016-11-19T01:26:20.104Z,6.3
2016-11-19T01:26:30.098Z,6.3
2016-11-19T01:26:40.092Z,6.4
2016-11-19T01:26:50.085Z,6.3
2016-11-19T01:27:00.080Z,6.3
2016-11-19T01:27:10.075Z,6.3
2016-11-19T01:27:20.068Z,6.2
2016-11-19T01:27:30.063Z,6.3
2016-11-19T01:27:40.055Z,6.4
2016-11-19T01:27:50.051Z,6.4
2016-11-19T01:28:00.044Z,6.3
2016-11-19T01:28:10.037Z,6.3
2016-11-19T01:28:20.032Z,6.3
2016-11-19T01:28:30.025Z,6.2
2016-11-19T01:28:40.019Z,6.3
2016-11-19T01:28:50.014Z,6.2
2016-11-19T01:29:00.006Z,6.2
2016-11-19T01:29:10.001Z,6.2
2016-11-19T01:29:19.994Z,6.2
2016-11-19T01:29:29.987Z,6.2
2016-11-19T01:29:39.981Z,6.2
2016-11-19T01:29:49.975Z,6.3
2016-11-19T01:29:59.968Z,6.3
2016-11-19T01:30:09.964Z,6.3
2016-11-19T01:30:19.954Z,6.3
2016-11-19T01:30:29.951Z,6.3
2016-11-19T01:30:39.944Z,6.3
2016-11-19T01:30:49.938Z,6.3
2016-11-19T01:30:59.931Z,6.2
2016-11-19T01:31:09.927Z,6.2
2016-11-19T01:31:19.919Z,6.3
2016-11-19T01:31:29.913Z,6.3
2016-11-19T01:31:39.908Z,6.3
2016-11-19T01:31:49.898Z,6.2
2016-11-19T01:31:59.895Z,6.3
2016-11-19T01:32:09.889Z,6.2
2016-11-19T01:32:19.883Z,6.3
2016-11-19T01:32:29.877Z,6.3
2016-11-19T01:32:39.872Z,6.3
2016-11-19T01:32:49.862Z,6.2
2016-11-19T01:32:59.856Z,6.3
2016-11-19T01:33:09.850Z,6.3
2016-11-19T01:33:19.844Z,6.3
2016-11-19T01:33:29.841Z,6.3
2016-11-19T01:33:39.833Z,6.3
2016-11-19T01:33:49.826Z,6.3
2016-11-19T01:33:59.820Z,6.4
2016-11-19T01:34:09.813Z,6.4
2016-11-19T01:34:19.807Z,6.4
2016-11-19T01:34:29.800Z,6.4
2016-11-19T01:34:39.796Z,6.3
2016-11-19T01:34:49.789Z,6.4
2016-11-19T01:34:59.784Z,6.3
2016-11-19T01:35:09.775Z,6.2
2016-11-19T01:35:19.771Z,6.3
2016-11-19T01:35:29.762Z,6.4
2016-11-19T01:35:39.758Z,6.4
2016-11-19T01:35:49.756Z,6.4
2016-11-19T01:35:59.746Z,6.3
2016-11-19T01:36:09.741Z,6.3
2016-11-19T01:36:19.735Z,6.4
2016-11-19T01:36:29.728Z,6.3
2016-11-19T01:36:39.719Z,6.4
2016-11-19T01:36:49.714Z,6.4
2016-11-19T01:36:59.707Z,6.3
2016-11-19T01:37:09.703Z,6.3
2016-11-19T01:37:19.696Z,6.3
2016-11-19T01:37:29.689Z,6.3
2016-11-19T01:37:39.686Z,6.3
2016-11-19T01:37:49.678Z,6.3
2016-11-19T01:37:59.670Z,6.3
2016-11-19T01:38:09.666Z,6.2
2016-11-19T01:38:19.659Z,6.2
2016-11-19T01:38:29.653Z,6.3
2016-11-19T01:38:39.646Z,6.3
2016-11-19T01:38:49.639Z,6.2
2016-11-19T01:38:59.631Z,6.2
2016-11-19T01:39:09.629Z,6.2
2016-11-19T01:39:19.621Z,6.2
2016-11-19T01:39:29.616Z,6.2
2016-11-19T01:39:39.609Z,6.2
2016-11-19T01:39:49.603Z,6.2
2016-11-19T01:39:59.597Z,6.2
2016-11-19T01:40:09.591Z,6.2
2016-11-19T01:40:19.586Z,6.2
2016-11-19T01:40:29.577Z,6.2
2016-11-19T01:40:39.572Z,6.2
2016-11-19T01:40:49.564Z,6.2
2016-11-19T01:40:59.559Z,6.2
2016-11-19T01:41:09.553Z,6.2
2016-11-19T01:41:19.547Z,6.2
2016-11-19T01:41:29.541Z,6.2
2016-11-19T01:41:39.535Z,6.3
2016-11-19T01:41:49.528Z,6.3
2016-11-19T01:41:59.522Z,6.2
2016-11-19T01:42:09.517Z,6.2
2016-11-19T01:42:19.510Z,6.3
2016-11-19T01:42:29.503Z,6.2
2016-11-19T01:42:39.497Z,6.2
2016-11-19T01:42:49.491Z,6.3
2016-11-19T01:42:59.485Z,6.3
2016-11-19T01:43:09.480Z,6.3
2016-11-19T01:43:19.473Z,6.3
2016-11-19T01:43:29.467Z,6.3
2016-11-19T01:43:39.462Z,6.3
2016-11-19T01:43:49.454Z,6.3
2016-11-19T01:43:59.447Z,6.3
2016-11-19T01:44:09.441Z,6.3
2016-11-19T01:44:19.435Z,6.3
2016-11-19T01:44:29.429Z,6.2
2016-11-19T01:44:39.422Z,6.3
2016-11-19T01:44:49.417Z,6.3
2016-11-19T01:44:59.410Z,6.3
2016-11-19T01:45:09.403Z,6.3
2016-11-19T01:45:19.396Z,6.3
2016-11-19T01:45:29.390Z,6.3
2016-11-19T01:45:39.386Z,6.3
2016-11-19T01:45:49.378Z,6.3
2016-11-19T01:45:59.372Z,6.2
2016-11-19T01:46:09.368Z,6.3
2016-11-19T01:46:19.362Z,6.3
2016-11-19T01:46:29.356Z,6.2
2016-11-19T01:46:39.347Z,6.2
2016-11-19T01:46:49.341Z,6.2
2016-11-19T01:46:59.336Z,6.2
2016-11-19T01:47:09.329Z,6.2
2016-11-19T01:47:19.323Z,6.2
2016-11-19T01:47:29.317Z,6.2
2016-11-19T01:47:39.310Z,6.2
2016-11-19T01:47:49.304Z,6.2
2016-11-19T01:47:59.298Z,6.2
2016-11-19T01:48:09.291Z,6.2
2016-11-19T01:48:19.284Z,6.2
2016-11-19T01:48:29.279Z,6.2
2016-11-19T01:48:39.274Z,6.2
2016-11-19T01:48:49.267Z,6.2
2016-11-19T01:48:59.261Z,6.2
2016-11-19T01:49:09.255Z,6.2
2016-11-19T01:49:19.248Z,6.3
2016-11-19T01:49:29.242Z,6.2
2016-11-19T01:49:39.236Z,6.2
2016-11-19T01:49:49.230Z,6.2
2016-11-19T01:49:59.223Z,6.2
2016-11-19T01:50:09.218Z,6.2
2016-11-19T01:50:19.211Z,6.2
2016-11-19T01:50:29.205Z,6.2
2016-11-19T01:50:39.198Z,6.2
2016-11-19T01:50:49.192Z,6.2
2016-11-19T01:50:59.186Z,6.2
2016-11-19T01:51:09.179Z,6.2
2016-11-19T01:51:19.175Z,6.2
2016-11-19T01:51:29.171Z,6.1
2016-11-19T01:51:39.160Z,6.1
2016-11-19T01:51:49.154Z,6.1
2016-11-19T01:51:59.148Z,6.1
2016-11-19T01:52:09.144Z,6.1
2016-11-19T01:52:19.136Z,6.2
2016-11-19T01:52:29.131Z,6.1
2016-11-19T01:52:39.124Z,6.1
2016-11-19T01:52:49.118Z,6.1
2016-11-19T01:52:59.111Z,6.1
2016-11-19T01:53:09.109Z,6
2016-11-19T01:53:19.100Z,6.1
2016-11-19T01:53:29.092Z,6.1
2016-11-19T01:53:39.086Z,6.1
2016-11-19T01:53:49.079Z,6.1
2016-11-19T01:53:59.074Z,6.1
2016-11-19T01:54:09.068Z,6.1
2016-11-19T01:54:19.061Z,6.1
2016-11-19T01:54:29.055Z,6.2
2016-11-19T01:54:39.048Z,6.2
2016-11-19T01:54:49.042Z,6.1
2016-11-19T01:54:59.037Z,6.1
2016-11-19T01:55:09.030Z,6.1
2016-11-19T01:55:19.024Z,6.1
2016-11-19T01:55:29.017Z,6.1
2016-11-19T01:55:39.010Z,6.1
2016-11-19T01:55:49.005Z,6.1
2016-11-19T01:55:58.998Z,6.1
2016-11-19T01:56:08.995Z,6.2
2016-11-19T01:56:18.988Z,6.1
2016-11-19T01:56:28.980Z,6.1
2016-11-19T01:56:38.973Z,6.1
2016-11-19T01:56:48.968Z,6.1
2016-11-19T01:56:58.961Z,6.1
2016-11-19T01:57:08.960Z,6.1
2016-11-19T01:57:18.949Z,6.1
2016-11-19T01:57:28.944Z,6.1
2016-11-19T01:57:38.937Z,6.2
2016-11-19T01:57:48.931Z,6.1
2016-11-19T01:57:58.924Z,6.1
2016-11-19T01:58:08.918Z,6.1
2016-11-19T01:58:18.911Z,6
2016-11-19T01:58:28.905Z,6
2016-11-19T01:58:38.901Z,6.1
2016-11-19T01:58:48.894Z,6
2016-11-19T01:58:58.888Z,6.1
2016-11-19T01:59:08.880Z,6
2016-11-19T01:59:18.874Z,6.1
2016-11-19T01:59:28.870Z,6.1
2016-11-19T01:59:38.861Z,6.1
2016-11-19T01:59:48.855Z,6.1
2016-11-19T01:59:58.850Z,6.1
2016-11-19T02:00:08.843Z,6.1
2016-11-19T02:00:18.840Z,6.1
2016-11-19T02:00:28.829Z,6
2016-11-19T02:00:38.829Z,6.1
2016-11-19T02:00:48.818Z,6.2
2016-11-19T02:00:58.812Z,6.2
2016-11-19T02:01:08.806Z,6.1
2016-11-19T02:01:18.800Z,6.1
2016-11-19T02:01:28.794Z,6.1
2016-11-19T02:01:38.787Z,6.2
2016-11-19T02:01:48.780Z,6.1
2016-11-19T02:01:58.773Z,6.1
2016-11-19T02:02:08.768Z,6.1
2016-11-19T02:02:18.762Z,6.1
2016-11-19T02:02:28.757Z,6.1
2016-11-19T02:02:38.749Z,6
2016-11-19T02:02:48.743Z,6.2
2016-11-19T02:02:58.738Z,6.1
2016-11-19T02:03:08.730Z,6.2
2016-11-19T02:03:18.725Z,6
2016-11-19T02:03:28.717Z,6.2
2016-11-19T02:03:38.712Z,6.1
2016-11-19T02:03:48.706Z,6.2
2016-11-19T02:03:58.699Z,6.2
2016-11-19T02:04:08.694Z,6.1
2016-11-19T02:04:18.688Z,6
2016-11-19T02:04:28.680Z,6.1
2016-11-19T02:04:38.675Z,6.2
2016-11-19T02:04:48.668Z,6.1
2016-11-19T02:04:58.662Z,6.1
2016-11-19T02:05:08.656Z,6.1
2016-11-19T02:05:18.649Z,6.2
2016-11-19T02:05:28.643Z,6.1
2016-11-19T02:05:38.637Z,6.1
2016-11-19T02:05:48.630Z,6
2016-11-19T02:05:58.624Z,6.1
2016-11-19T02:06:08.619Z,6
2016-11-19T02:06:18.613Z,6.1
2016-11-19T02:06:28.606Z,6.1
2016-11-19T02:06:38.599Z,6.1
2016-11-19T02:06:48.591Z,6.1
2016-11-19T02:06:58.585Z,6.1
2016-11-19T02:07:08.580Z,6.1
2016-11-19T02:07:18.575Z,6.1
2016-11-19T02:07:28.567Z,6.1
2016-11-19T02:07:38.560Z,6
2016-11-19T02:07:48.554Z,6.2
2016-11-19T02:07:58.549Z,6.1
2016-11-19T02:08:08.545Z,6.2
2016-11-19T02:08:18.537Z,6
2016-11-19T02:08:28.529Z,6.1
2016-11-19T02:08:38.523Z,6.1
2016-11-19T02:08:48.518Z,6.1
2016-11-19T02:08:58.510Z,6.1
2016-11-19T02:09:08.505Z,6.2
2016-11-19T02:09:18.498Z,6.1
2016-11-19T02:09:28.492Z,6.1
2016-11-19T02:09:38.486Z,6.2
2016-11-19T02:09:48.479Z,6.2
2016-11-19T02:09:58.475Z,6.1
2016-11-19T02:10:08.467Z,6.1
2016-11-19T02:10:18.461Z,6.1
2016-11-19T02:10:28.453Z,6.1
2016-11-19T02:10:38.448Z,6.1
2016-11-19T02:10:48.441Z,6
2016-11-19T02:10:58.436Z,6.1
2016-11-19T02:11:08.429Z,6.1
2016-11-19T02:11:18.425Z,6.2
2016-11-19T02:11:28.418Z,6.1
2016-11-19T02:11:38.411Z,6
2016-11-19T02:11:48.404Z,6.1
2016-11-19T02:11:58.397Z,6.1
2016-11-19T02:12:08.392Z,6.1
2016-11-19T02:12:18.386Z,6.1
2016-11-19T02:12:28.383Z,6.1
2016-11-19T02:12:38.373Z,6.1
2016-11-19T02:12:48.369Z,6
2016-11-19T02:12:58.360Z,6
2016-11-19T02:13:08.354Z,6.1
2016-11-19T02:13:18.348Z,6.1
2016-11-19T02:13:28.342Z,6
2016-11-19T02:13:38.336Z,6.1
2016-11-19T02:13:48.329Z,6.1
2016-11-19T02:13:58.323Z,6.1
2016-11-19T02:14:08.318Z,6
2016-11-19T02:14:18.310Z,6
2016-11-19T02:14:28.303Z,6.1
2016-11-19T02:14:38.298Z,6
2016-11-19T02:14:48.292Z,6.1
2016-11-19T02:14:58.287Z,6.1
2016-11-19T02:15:08.280Z,6.1
2016-11-19T02:15:18.273Z,6.1
2016-11-19T02:15:28.267Z,6
2016-11-19T02:15:38.261Z,6.2
2016-11-19T02:15:48.255Z,6.2
2016-11-19T02:15:58.248Z,6.2
2016-11-19T02:16:08.242Z,6.1
2016-11-19T02:16:18.236Z,6.1
2016-11-19T02:16:28.230Z,6.1
2016-11-19T02:16:38.223Z,6.1
2016-11-19T02:16:48.218Z,6
2016-11-19T02:16:58.211Z,6.1
2016-11-19T02:17:08.204Z,6
2016-11-19T02:17:18.198Z,6.1
2016-11-19T02:17:28.192Z,6.1
2016-11-19T02:17:38.186Z,6.2
2016-11-19T02:17:48.183Z,6.2
2016-11-19T02:17:58.174Z,6